John H Macmillan Jr — WDB9907 — position and weather

sailwx.info

Track history (hours):
 
Tides and Currents Weather Stations Pressure Air Temp Water Temp Dewpoint Dewpoint Depression Visibility Wind Speed Wind Dir Waves Ship Positions

John H Macmillan Jr

Owner: American River Transportation Company, St Louis, MO. More information available from US FCC via Universal Licensing System and Coast Guard Vessel Documentation Center.

Last reported at 2017-Jan-20 00:24 UTC. Time now 2017-Jan-21 19:40 UTC.
Position N 32°06' W 091°06'.

Length 55 m.

Type: Towing. MMSI: 366984920.

Date/timePositionNaut miles runAvg speedWind from/ knotsBaromVisibWave heightAir tempDewpointWater temp
2017-Jan-20 00:24N 32°06' W 091°06'3 3.3
2017-Jan-19 23:33N 32°07' W 091°03'7 7.4
2017-Jan-19 22:33N 32°14' W 090°59'7 7.5
2017-Jan-19 21:33N 32°21' W 090°55'6 6.4
2017-Jan-19 20:33N 32°25' W 091°01'9 7.7
2017-Jan-19 19:23N 32°33' W 091°06'  
2017-Jan-11 13:07N 32°47' W 091°10'2 4.4
2017-Jan-11 12:33N 32°44' W 091°09'4 1.5
2017-Jan-11 09:33N 32°40' W 091°07'4 4.0
2017-Jan-11 08:33N 32°37' W 091°09'4 4.2
2017-Jan-11 07:33N 32°33' W 091°06'5 4.6
2017-Jan-11 06:33N 32°29' W 091°07'5 4.7
2017-Jan-11 05:33N 32°26' W 091°02'4 3.6
2017-Jan-11 04:33N 32°23' W 090°60'3 3.2
2017-Jan-11 03:34N 32°21' W 090°57'3 3.0
2017-Jan-11 02:33N 32°19' W 090°54'5 4.7
2017-Jan-11 01:33N 32°16' W 090°58'4 3.7
2017-Jan-11 00:33N 32°12' W 090°59'2 2.4
2017-Jan-10 23:33N 32°10' W 091°00'4 3.4
2017-Jan-10 22:28N 32°08' W 091°03'3 2.8
2017-Jan-10 21:33N 32°06' W 091°06'5 4.7
2017-Jan-10 20:33N 32°01' W 091°04'  
Track history (hours):
 
Tides and Currents Weather Stations Pressure Air Temp Water Temp Dewpoint Dewpoint Depression Visibility Wind Speed Wind Dir Waves Ship Positions

John H Macmillan Jr

Owner: American River Transportation Company, St Louis, MO. More information available from US FCC via Universal Licensing System and Coast Guard Vessel Documentation Center.

Last reported at 2017-Jan-20 00:24 UTC. Time now 2017-Jan-21 19:40 UTC.
Position N 32°06' W 091°06'.

Length 55 m.

Type: Towing. MMSI: 366984920.

Date/timePositionNaut miles runAvg speedWind from/ knotsBaromVisibWave heightAir tempDewpointWater temp
2017-Jan-20 00:24N 32°06' W 091°06'3 3.3
2017-Jan-19 23:33N 32°07' W 091°03'7 7.4
2017-Jan-19 22:33N 32°14' W 090°59'7 7.5
2017-Jan-19 21:33N 32°21' W 090°55'6 6.4
2017-Jan-19 20:33N 32°25' W 091°01'9 7.7
2017-Jan-19 19:23N 32°33' W 091°06'  
2017-Jan-11 13:07N 32°47' W 091°10'2 4.4
2017-Jan-11 12:33N 32°44' W 091°09'4 1.5
2017-Jan-11 09:33N 32°40' W 091°07'4 4.0
2017-Jan-11 08:33N 32°37' W 091°09'4 4.2
2017-Jan-11 07:33N 32°33' W 091°06'5 4.6
2017-Jan-11 06:33N 32°29' W 091°07'5 4.7
2017-Jan-11 05:33N 32°26' W 091°02'4 3.6
2017-Jan-11 04:33N 32°23' W 090°60'3 3.2
2017-Jan-11 03:34N 32°21' W 090°57'3 3.0
2017-Jan-11 02:33N 32°19' W 090°54'5 4.7
2017-Jan-11 01:33N 32°16' W 090°58'4 3.7
2017-Jan-11 00:33N 32°12' W 090°59'2 2.4
2017-Jan-10 23:33N 32°10' W 091°00'4 3.4
2017-Jan-10 22:28N 32°08' W 091°03'3 2.8
2017-Jan-10 21:33N 32°06' W 091°06'5 4.7
2017-Jan-10 20:33N 32°01' W 091°04'  

Dump ship's entire track history